sensor_id;sensor_type;location;lat;lon;timestamp;temperature;humidity
35085;SHT85;21267;51.032;6.998;2023-04-30T00:01:39;8.43;93.20
35085;SHT85;21267;51.032;6.998;2023-04-30T00:04:11;8.43;93.15
35085;SHT85;21267;51.032;6.998;2023-04-30T00:06:56;8.47;92.98
35085;SHT85;21267;51.032;6.998;2023-04-30T00:09:28;8.31;93.03
35085;SHT85;21267;51.032;6.998;2023-04-30T00:12:08;8.31;93.10
35085;SHT85;21267;51.032;6.998;2023-04-30T00:14:41;8.36;93.10
35085;SHT85;21267;51.032;6.998;2023-04-30T00:17:12;8.51;92.87
35085;SHT85;21267;51.032;6.998;2023-04-30T00:19:46;8.41;92.61
35085;SHT85;21267;51.032;6.998;2023-04-30T00:22:15;8.40;92.25
35085;SHT85;21267;51.032;6.998;2023-04-30T00:24:45;8.16;92.12
35085;SHT85;21267;51.032;6.998;2023-04-30T00:27:14;8.26;91.97
35085;SHT85;21267;51.032;6.998;2023-04-30T00:29:58;8.30;91.75
35085;SHT85;21267;51.032;6.998;2023-04-30T00:32:25;8.29;91.86
35085;SHT85;21267;51.032;6.998;2023-04-30T00:35:13;8.19;91.72
35085;SHT85;21267;51.032;6.998;2023-04-30T00:37:55;8.26;91.86
35085;SHT85;21267;51.032;6.998;2023-04-30T00:40:24;8.20;91.79
35085;SHT85;21267;51.032;6.998;2023-04-30T00:43:10;8.06;91.83
35085;SHT85;21267;51.032;6.998;2023-04-30T00:45:49;8.02;91.74
35085;SHT85;21267;51.032;6.998;2023-04-30T00:48:19;8.07;91.79
35085;SHT85;21267;51.032;6.998;2023-04-30T00:51:04;8.07;91.72
35085;SHT85;21267;51.032;6.998;2023-04-30T00:53:32;8.10;91.88
35085;SHT85;21267;51.032;6.998;2023-04-30T00:56:03;7.90;91.99
35085;SHT85;21267;51.032;6.998;2023-04-30T00:58:52;7.83;92.39
35085;SHT85;21267;51.032;6.998;2023-04-30T01:01:25;7.85;92.26
35085;SHT85;21267;51.032;6.998;2023-04-30T01:03:54;7.92;92.19
35085;SHT85;21267;51.032;6.998;2023-04-30T01:06:44;7.97;91.78
35085;SHT85;21267;51.032;6.998;2023-04-30T01:09:21;7.93;91.72
35085;SHT85;21267;51.032;6.998;2023-04-30T01:12:12;7.97;91.74
35085;SHT85;21267;51.032;6.998;2023-04-30T01:20:34;7.99;90.51
35085;SHT85;21267;51.032;6.998;2023-04-30T01:23:23;7.94;90.28
35085;SHT85;21267;51.032;6.998;2023-04-30T01:26:21;7.99;89.97
35085;SHT85;21267;51.032;6.998;2023-04-30T01:29:02;7.96;89.73
35085;SHT85;21267;51.032;6.998;2023-04-30T01:31:42;7.96;89.74
35085;SHT85;21267;51.032;6.998;2023-04-30T01:34:19;7.90;89.88
35085;SHT85;21267;51.032;6.998;2023-04-30T01:43:28;7.81;89.94
35085;SHT85;21267;51.032;6.998;2023-04-30T01:51:44;7.62;90.72
35085;SHT85;21267;51.032;6.998;2023-04-30T01:57:08;7.50;90.86
35085;SHT85;21267;51.032;6.998;2023-04-30T01:59:39;7.48;90.66
35085;SHT85;21267;51.032;6.998;2023-04-30T02:02:21;7.41;90.66
35085;SHT85;21267;51.032;6.998;2023-04-30T02:04:52;7.40;90.62
35085;SHT85;21267;51.032;6.998;2023-04-30T02:07:41;7.35;90.71
35085;SHT85;21267;51.032;6.998;2023-04-30T02:10:23;7.48;90.57
35085;SHT85;21267;51.032;6.998;2023-04-30T02:13:05;7.51;90.25
35085;SHT85;21267;51.032;6.998;2023-04-30T02:15:47;7.40;90.67
35085;SHT85;21267;51.032;6.998;2023-04-30T02:18:14;7.48;90.42
35085;SHT85;21267;51.032;6.998;2023-04-30T02:20:44;7.52;90.22
35085;SHT85;21267;51.032;6.998;2023-04-30T02:23:21;7.54;90.19
35085;SHT85;21267;51.032;6.998;2023-04-30T02:25:51;7.40;90.38
35085;SHT85;21267;51.032;6.998;2023-04-30T02:28:31;7.38;90.51
35085;SHT85;21267;51.032;6.998;2023-04-30T02:31:25;7.30;90.70
35085;SHT85;21267;51.032;6.998;2023-04-30T02:34:32;7.36;90.45
35085;SHT85;21267;51.032;6.998;2023-04-30T02:36:59;7.28;90.53
35085;SHT85;21267;51.032;6.998;2023-04-30T02:39:27;7.21;90.80
35085;SHT85;21267;51.032;6.998;2023-04-30T02:42:02;7.15;91.05
35085;SHT85;21267;51.032;6.998;2023-04-30T02:44:41;7.11;91.27
35085;SHT85;21267;51.032;6.998;2023-04-30T02:47:13;7.01;91.40
35085;SHT85;21267;51.032;6.998;2023-04-30T02:49:55;7.03;91.79
35085;SHT85;21267;51.032;6.998;2023-04-30T02:52:33;6.90;92.09
35085;SHT85;21267;51.032;6.998;2023-04-30T02:55:04;7.07;92.07
35085;SHT85;21267;51.032;6.998;2023-04-30T02:57:45;6.90;92.13
35085;SHT85;21267;51.032;6.998;2023-04-30T03:00:18;6.83;92.25
35085;SHT85;21267;51.032;6.998;2023-04-30T03:03:01;6.86;92.35
35085;SHT85;21267;51.032;6.998;2023-04-30T03:05:30;6.73;92.50
35085;SHT85;21267;51.032;6.998;2023-04-30T03:08:13;6.69;92.58
35085;SHT85;21267;51.032;6.998;2023-04-30T03:10:41;6.71;92.68
35085;SHT85;21267;51.032;6.998;2023-04-30T03:13:23;6.65;92.53
35085;SHT85;21267;51.032;6.998;2023-04-30T03:16:01;6.72;92.41
35085;SHT85;21267;51.032;6.998;2023-04-30T03:18:45;6.66;92.42
35085;SHT85;21267;51.032;6.998;2023-04-30T03:21:16;6.65;92.46
35085;SHT85;21267;51.032;6.998;2023-04-30T03:23:48;6.57;92.25
35085;SHT85;21267;51.032;6.998;2023-04-30T03:26:19;6.65;92.16
35085;SHT85;21267;51.032;6.998;2023-04-30T03:29:06;6.57;92.39
35085;SHT85;21267;51.032;6.998;2023-04-30T03:31:33;6.48;92.53
35085;SHT85;21267;51.032;6.998;2023-04-30T03:34:16;6.34;92.68
35085;SHT85;21267;51.032;6.998;2023-04-30T03:36:59;6.29;92.75
35085;SHT85;21267;51.032;6.998;2023-04-30T03:39:30;6.24;92.89
35085;SHT85;21267;51.032;6.998;2023-04-30T03:42:11;6.26;93.10
35085;SHT85;21267;51.032;6.998;2023-04-30T03:44:53;6.24;93.07
35085;SHT85;21267;51.032;6.998;2023-04-30T03:47:38;6.26;93.30
35085;SHT85;21267;51.032;6.998;2023-04-30T03:50:18;6.25;92.96
35085;SHT85;21267;51.032;6.998;2023-04-30T03:52:52;6.29;92.91
35085;SHT85;21267;51.032;6.998;2023-04-30T03:55:39;6.21;92.71
35085;SHT85;21267;51.032;6.998;2023-04-30T03:58:08;6.17;93.07
35085;SHT85;21267;51.032;6.998;2023-04-30T04:00:53;6.07;93.04
35085;SHT85;21267;51.032;6.998;2023-04-30T04:03:22;6.20;93.19
35085;SHT85;21267;51.032;6.998;2023-04-30T04:06:04;6.07;93.32
35085;SHT85;21267;51.032;6.998;2023-04-30T04:08:31;6.14;93.23
35085;SHT85;21267;51.032;6.998;2023-04-30T04:11:03;6.01;93.09
35085;SHT85;21267;51.032;6.998;2023-04-30T04:13:36;5.97;93.02
35085;SHT85;21267;51.032;6.998;2023-04-30T04:16:18;5.95;93.27
35085;SHT85;21267;51.032;6.998;2023-04-30T04:18:47;5.89;93.28
35085;SHT85;21267;51.032;6.998;2023-04-30T04:21:18;5.77;93.41
35085;SHT85;21267;51.032;6.998;2023-04-30T04:23:56;5.84;93.07
35085;SHT85;21267;51.032;6.998;2023-04-30T04:26:42;5.87;93.20
35085;SHT85;21267;51.032;6.998;2023-04-30T04:29:13;5.76;93.62
35085;SHT85;21267;51.032;6.998;2023-04-30T04:31:45;5.95;93.31
35085;SHT85;21267;51.032;6.998;2023-04-30T04:34:18;6.05;93.28
35085;SHT85;21267;51.032;6.998;2023-04-30T04:37:00;5.95;93.33
35085;SHT85;21267;51.032;6.998;2023-04-30T04:39:28;5.91;93.32
35085;SHT85;21267;51.032;6.998;2023-04-30T04:42:14;6.10;93.30
35085;SHT85;21267;51.032;6.998;2023-04-30T04:45:07;6.05;93.51
35085;SHT85;21267;51.032;6.998;2023-04-30T04:47:48;6.01;93.31
35085;SHT85;21267;51.032;6.998;2023-04-30T04:50:24;6.11;93.43
35085;SHT85;21267;51.032;6.998;2023-04-30T04:53:07;6.05;93.29
35085;SHT85;21267;51.032;6.998;2023-04-30T04:55:36;6.05;93.34
35085;SHT85;21267;51.032;6.998;2023-04-30T04:58:24;6.18;93.56
35085;SHT85;21267;51.032;6.998;2023-04-30T05:01:03;6.29;93.06
35085;SHT85;21267;51.032;6.998;2023-04-30T05:03:34;6.25;93.04
35085;SHT85;21267;51.032;6.998;2023-04-30T05:06:19;6.31;93.33
35085;SHT85;21267;51.032;6.998;2023-04-30T05:08:47;6.41;93.04
35085;SHT85;21267;51.032;6.998;2023-04-30T05:11:38;6.62;92.65
35085;SHT85;21267;51.032;6.998;2023-04-30T05:14:27;6.66;92.41
35085;SHT85;21267;51.032;6.998;2023-04-30T05:17:12;6.65;92.38
35085;SHT85;21267;51.032;6.998;2023-04-30T05:19:39;6.80;92.02
35085;SHT85;21267;51.032;6.998;2023-04-30T05:22:05;6.96;91.93
35085;SHT85;21267;51.032;6.998;2023-04-30T05:24:48;7.05;91.61
35085;SHT85;21267;51.032;6.998;2023-04-30T05:27:16;7.23;91.30
35085;SHT85;21267;51.032;6.998;2023-04-30T05:29:53;7.34;90.79
35085;SHT85;21267;51.032;6.998;2023-04-30T05:32:25;7.41;90.69
35085;SHT85;21267;51.032;6.998;2023-04-30T05:35:07;7.47;90.51
35085;SHT85;21267;51.032;6.998;2023-04-30T05:37:37;7.56;90.37
35085;SHT85;21267;51.032;6.998;2023-04-30T05:40:05;7.72;90.01
35085;SHT85;21267;51.032;6.998;2023-04-30T05:42:37;7.89;89.53
35085;SHT85;21267;51.032;6.998;2023-04-30T05:45:09;8.12;88.52
35085;SHT85;21267;51.032;6.998;2023-04-30T05:47:41;8.22;87.92
35085;SHT85;21267;51.032;6.998;2023-04-30T05:50:09;8.27;87.97
35085;SHT85;21267;51.032;6.998;2023-04-30T05:52:38;8.45;88.46
35085;SHT85;21267;51.032;6.998;2023-04-30T05:55:08;8.44;88.13
35085;SHT85;21267;51.032;6.998;2023-04-30T05:57:36;8.50;87.93
35085;SHT85;21267;51.032;6.998;2023-04-30T06:00:07;8.60;87.71
35085;SHT85;21267;51.032;6.998;2023-04-30T06:02:40;8.75;87.54
35085;SHT85;21267;51.032;6.998;2023-04-30T06:05:14;8.78;87.10
35085;SHT85;21267;51.032;6.998;2023-04-30T06:07:48;8.89;86.62
35085;SHT85;21267;51.032;6.998;2023-04-30T06:10:29;8.98;86.08
35085;SHT85;21267;51.032;6.998;2023-04-30T06:13:02;9.08;85.97
35085;SHT85;21267;51.032;6.998;2023-04-30T06:15:43;9.13;85.40
35085;SHT85;21267;51.032;6.998;2023-04-30T06:18:33;9.24;85.37
35085;SHT85;21267;51.032;6.998;2023-04-30T06:21:04;9.37;84.96
35085;SHT85;21267;51.032;6.998;2023-04-30T06:23:52;9.53;84.51
35085;SHT85;21267;51.032;6.998;2023-04-30T06:26:34;9.54;84.54
35085;SHT85;21267;51.032;6.998;2023-04-30T06:33:48;9.70;83.94
35085;SHT85;21267;51.032;6.998;2023-04-30T06:36:37;9.92;83.71
35085;SHT85;21267;51.032;6.998;2023-04-30T06:39:23;10.09;82.86
35085;SHT85;21267;51.032;6.998;2023-04-30T06:42:06;10.16;82.71
35085;SHT85;21267;51.032;6.998;2023-04-30T06:44:42;10.22;82.50
35085;SHT85;21267;51.032;6.998;2023-04-30T06:47:27;10.43;82.14
35085;SHT85;21267;51.032;6.998;2023-04-30T06:49:55;10.42;82.04
35085;SHT85;21267;51.032;6.998;2023-04-30T06:52:37;10.56;81.68
35085;SHT85;21267;51.032;6.998;2023-04-30T06:55:24;10.64;81.36
35085;SHT85;21267;51.032;6.998;2023-04-30T06:58:10;10.81;81.09
35085;SHT85;21267;51.032;6.998;2023-04-30T07:04:04;11.24;79.89
35085;SHT85;21267;51.032;6.998;2023-04-30T07:06:35;11.52;79.50
35085;SHT85;21267;51.032;6.998;2023-04-30T07:09:22;11.53;78.34
35085;SHT85;21267;51.032;6.998;2023-04-30T07:12:04;11.53;78.22
35085;SHT85;21267;51.032;6.998;2023-04-30T07:14:31;11.53;78.31
35085;SHT85;21267;51.032;6.998;2023-04-30T07:17:01;11.60;78.12
35085;SHT85;21267;51.032;6.998;2023-04-30T07:19:39;11.85;77.85
35085;SHT85;21267;51.032;6.998;2023-04-30T07:22:23;11.91;77.22
35085;SHT85;21267;51.032;6.998;2023-04-30T07:25:08;11.91;76.99
35085;SHT85;21267;51.032;6.998;2023-04-30T07:27:36;12.07;76.92
35085;SHT85;21267;51.032;6.998;2023-04-30T07:30:24;12.22;76.67
35085;SHT85;21267;51.032;6.998;2023-04-30T07:33:11;12.47;76.01
35085;SHT85;21267;51.032;6.998;2023-04-30T07:35:39;12.76;75.47
35085;SHT85;21267;51.032;6.998;2023-04-30T07:38:11;12.89;74.83
35085;SHT85;21267;51.032;6.998;2023-04-30T07:40:38;12.97;74.36
35085;SHT85;21267;51.032;6.998;2023-04-30T07:46:51;13.41;72.91
35085;SHT85;21267;51.032;6.998;2023-04-30T07:49:21;13.61;72.14
35085;SHT85;21267;51.032;6.998;2023-04-30T07:52:06;14.63;70.41
35085;SHT85;21267;51.032;6.998;2023-04-30T07:54:36;15.90;66.67
35085;SHT85;21267;51.032;6.998;2023-04-30T07:57:05;16.07;65.68
35085;SHT85;21267;51.032;6.998;2023-04-30T07:59:31;16.36;64.61
35085;SHT85;21267;51.032;6.998;2023-04-30T08:01:58;16.59;62.98
35085;SHT85;21267;51.032;6.998;2023-04-30T08:04:25;16.53;62.49
35085;SHT85;21267;51.032;6.998;2023-04-30T08:06:52;15.25;65.12
35085;SHT85;21267;51.032;6.998;2023-04-30T08:09:20;15.96;63.35
35085;SHT85;21267;51.032;6.998;2023-04-30T08:11:46;15.59;64.05
35085;SHT85;21267;51.032;6.998;2023-04-30T08:14:13;16.18;63.24
35085;SHT85;21267;51.032;6.998;2023-04-30T08:16:41;16.31;62.65
35085;SHT85;21267;51.032;6.998;2023-04-30T08:19:08;17.37;60.03
35085;SHT85;21267;51.032;6.998;2023-04-30T08:21:34;17.48;59.46
35085;SHT85;21267;51.032;6.998;2023-04-30T08:24:01;16.49;60.94
35085;SHT85;21267;51.032;6.998;2023-04-30T08:26:28;16.77;62.31
35085;SHT85;21267;51.032;6.998;2023-04-30T08:28:57;17.48;59.08
35085;SHT85;21267;51.032;6.998;2023-04-30T08:31:27;18.23;56.30
35085;SHT85;21267;51.032;6.998;2023-04-30T08:33:54;17.52;58.71
35085;SHT85;21267;51.032;6.998;2023-04-30T08:36:23;17.65;58.09
35085;SHT85;21267;51.032;6.998;2023-04-30T08:38:50;17.85;57.93
35085;SHT85;21267;51.032;6.998;2023-04-30T08:41:19;18.71;56.54
35085;SHT85;21267;51.032;6.998;2023-04-30T08:43:51;18.34;57.07
35085;SHT85;21267;51.032;6.998;2023-04-30T08:46:21;18.43;56.54
35085;SHT85;21267;51.032;6.998;2023-04-30T08:48:50;17.40;58.56
35085;SHT85;21267;51.032;6.998;2023-04-30T08:51:17;18.58;55.56
35085;SHT85;21267;51.032;6.998;2023-04-30T08:53:45;18.52;55.28
35085;SHT85;21267;51.032;6.998;2023-04-30T08:56:13;18.37;55.26
35085;SHT85;21267;51.032;6.998;2023-04-30T08:58:41;18.87;54.84
35085;SHT85;21267;51.032;6.998;2023-04-30T09:01:09;18.20;54.94
35085;SHT85;21267;51.032;6.998;2023-04-30T09:03:36;18.85;52.97
35085;SHT85;21267;51.032;6.998;2023-04-30T09:06:03;17.58;54.96
35085;SHT85;21267;51.032;6.998;2023-04-30T09:09:10;18.72;52.63
35085;SHT85;21267;51.032;6.998;2023-04-30T09:11:37;19.03;52.04
35085;SHT85;21267;51.032;6.998;2023-04-30T09:14:04;20.02;49.71
35085;SHT85;21267;51.032;6.998;2023-04-30T09:19:29;19.33;49.84
35085;SHT85;21267;51.032;6.998;2023-04-30T09:21:56;19.54;50.91
35085;SHT85;21267;51.032;6.998;2023-04-30T09:24:23;18.80;50.42
35085;SHT85;21267;51.032;6.998;2023-04-30T09:26:52;20.77;48.03
35085;SHT85;21267;51.032;6.998;2023-04-30T09:29:19;20.08;50.13
35085;SHT85;21267;51.032;6.998;2023-04-30T09:31:47;21.13;47.38
35085;SHT85;21267;51.032;6.998;2023-04-30T09:34:34;21.08;47.61
35085;SHT85;21267;51.032;6.998;2023-04-30T09:37:01;20.97;48.41
35085;SHT85;21267;51.032;6.998;2023-04-30T09:39:31;18.84;52.25
35085;SHT85;21267;51.032;6.998;2023-04-30T09:42:10;18.82;53.04
35085;SHT85;21267;51.032;6.998;2023-04-30T09:44:39;18.14;54.12
35085;SHT85;21267;51.032;6.998;2023-04-30T09:47:14;20.19;50.23
35085;SHT85;21267;51.032;6.998;2023-04-30T09:49:42;20.52;49.69
35085;SHT85;21267;51.032;6.998;2023-04-30T09:52:10;20.94;49.15
35085;SHT85;21267;51.032;6.998;2023-04-30T09:54:37;21.03;48.08
35085;SHT85;21267;51.032;6.998;2023-04-30T09:57:04;22.02;47.54
35085;SHT85;21267;51.032;6.998;2023-04-30T09:59:33;22.32;46.72
35085;SHT85;21267;51.032;6.998;2023-04-30T10:02:06;21.72;47.69
35085;SHT85;21267;51.032;6.998;2023-04-30T10:04:37;19.09;51.62
35085;SHT85;21267;51.032;6.998;2023-04-30T10:07:11;18.89;52.38
35085;SHT85;21267;51.032;6.998;2023-04-30T10:09:49;17.89;53.31
35085;SHT85;21267;51.032;6.998;2023-04-30T10:12:21;17.87;53.66
35085;SHT85;21267;51.032;6.998;2023-04-30T10:15:14;19.01;52.57
35085;SHT85;21267;51.032;6.998;2023-04-30T10:17:45;19.78;50.76
35085;SHT85;21267;51.032;6.998;2023-04-30T10:20:14;20.26;48.89
35085;SHT85;21267;51.032;6.998;2023-04-30T10:22:57;19.66;50.07
35085;SHT85;21267;51.032;6.998;2023-04-30T10:25:24;19.13;52.06
35085;SHT85;21267;51.032;6.998;2023-04-30T10:27:57;17.98;54.23
35085;SHT85;21267;51.032;6.998;2023-04-30T10:30:24;18.12;54.22
35085;SHT85;21267;51.032;6.998;2023-04-30T10:35:25;18.84;52.83
35085;SHT85;21267;51.032;6.998;2023-04-30T10:37:58;20.56;49.88
35085;SHT85;21267;51.032;6.998;2023-04-30T10:40:35;22.41;46.41
35085;SHT85;21267;51.032;6.998;2023-04-30T10:43:04;22.16;45.36
35085;SHT85;21267;51.032;6.998;2023-04-30T10:45:57;21.16;47.21
35085;SHT85;21267;51.032;6.998;2023-04-30T17:58:39;18.29;56.92
35085;SHT85;21267;51.032;6.998;2023-04-30T18:01:06;18.19;56.93
35085;SHT85;21267;51.032;6.998;2023-04-30T18:03:33;18.13;57.13
35085;SHT85;21267;51.032;6.998;2023-04-30T18:06:02;18.10;57.22
35085;SHT85;21267;51.032;6.998;2023-04-30T18:08:29;17.78;57.57
35085;SHT85;21267;51.032;6.998;2023-04-30T18:10:56;17.76;57.99
35085;SHT85;21267;51.032;6.998;2023-04-30T18:13:23;17.81;58.03
35085;SHT85;21267;51.032;6.998;2023-04-30T18:15:53;17.50;58.57
35085;SHT85;21267;51.032;6.998;2023-04-30T18:18:20;17.40;59.36
35085;SHT85;21267;51.032;6.998;2023-04-30T18:20:48;17.40;58.95
35085;SHT85;21267;51.032;6.998;2023-04-30T18:23:15;17.07;59.52
35085;SHT85;21267;51.032;6.998;2023-04-30T18:25:42;17.10;59.42
35085;SHT85;21267;51.032;6.998;2023-04-30T18:28:09;16.90;60.09
35085;SHT85;21267;51.032;6.998;2023-04-30T18:30:36;16.97;60.11
35085;SHT85;21267;51.032;6.998;2023-04-30T18:33:04;16.99;60.13
35085;SHT85;21267;51.032;6.998;2023-04-30T18:35:32;16.76;60.38
35085;SHT85;21267;51.032;6.998;2023-04-30T18:38:00;16.73;60.72
35085;SHT85;21267;51.032;6.998;2023-04-30T18:40:27;16.56;61.08
35085;SHT85;21267;51.032;6.998;2023-04-30T18:42:54;16.62;60.86
35085;SHT85;21267;51.032;6.998;2023-04-30T18:45:22;16.42;61.02
35085;SHT85;21267;51.032;6.998;2023-04-30T18:47:49;16.29;61.55
35085;SHT85;21267;51.032;6.998;2023-04-30T18:50:17;16.20;61.65
35085;SHT85;21267;51.032;6.998;2023-04-30T18:52:45;16.28;61.52
35085;SHT85;21267;51.032;6.998;2023-04-30T18:55:12;16.22;61.81
35085;SHT85;21267;51.032;6.998;2023-04-30T18:57:41;16.20;61.62
35085;SHT85;21267;51.032;6.998;2023-04-30T19:00:09;16.17;61.66
35085;SHT85;21267;51.032;6.998;2023-04-30T19:02:37;16.24;61.50
35085;SHT85;21267;51.032;6.998;2023-04-30T19:05:05;16.11;61.63
35085;SHT85;21267;51.032;6.998;2023-04-30T19:07:32;16.11;61.71
35085;SHT85;21267;51.032;6.998;2023-04-30T19:09:59;15.97;61.93
35085;SHT85;21267;51.032;6.998;2023-04-30T19:12:27;15.87;62.00
35085;SHT85;21267;51.032;6.998;2023-04-30T19:14:55;15.83;62.24
35085;SHT85;21267;51.032;6.998;2023-04-30T19:17:22;15.66;62.41
35085;SHT85;21267;51.032;6.998;2023-04-30T19:19:49;15.67;62.57
35085;SHT85;21267;51.032;6.998;2023-04-30T19:22:16;15.73;62.55
35085;SHT85;21267;51.032;6.998;2023-04-30T19:24:44;15.59;62.80
35085;SHT85;21267;51.032;6.998;2023-04-30T19:27:11;15.45;63.05
35085;SHT85;21267;51.032;6.998;2023-04-30T19:29:38;15.36;63.32
35085;SHT85;21267;51.032;6.998;2023-04-30T19:32:05;15.42;63.36
35085;SHT85;21267;51.032;6.998;2023-04-30T19:34:33;15.40;63.22
35085;SHT85;21267;51.032;6.998;2023-04-30T19:37:00;15.29;63.84
35085;SHT85;21267;51.032;6.998;2023-04-30T19:39:31;15.39;63.51
35085;SHT85;21267;51.032;6.998;2023-04-30T19:42:02;15.19;64.00
35085;SHT85;21267;51.032;6.998;2023-04-30T19:44:29;14.99;64.64
35085;SHT85;21267;51.032;6.998;2023-04-30T19:46:56;14.99;64.79
35085;SHT85;21267;51.032;6.998;2023-04-30T19:49:24;15.09;64.59
35085;SHT85;21267;51.032;6.998;2023-04-30T19:51:52;14.87;65.01
35085;SHT85;21267;51.032;6.998;2023-04-30T19:54:19;14.84;65.41
35085;SHT85;21267;51.032;6.998;2023-04-30T19:56:48;14.84;65.45
35085;SHT85;21267;51.032;6.998;2023-04-30T19:59:18;14.75;65.73
35085;SHT85;21267;51.032;6.998;2023-04-30T20:01:45;14.63;66.07
35085;SHT85;21267;51.032;6.998;2023-04-30T20:04:15;14.52;66.44
35085;SHT85;21267;51.032;6.998;2023-04-30T20:06:42;14.49;66.60
35085;SHT85;21267;51.032;6.998;2023-04-30T20:09:10;14.49;66.46
35085;SHT85;21267;51.032;6.998;2023-04-30T20:11:37;14.43;66.67
35085;SHT85;21267;51.032;6.998;2023-04-30T20:14:04;14.37;66.76
35085;SHT85;21267;51.032;6.998;2023-04-30T20:16:31;14.34;66.74
35085;SHT85;21267;51.032;6.998;2023-04-30T20:18:58;14.34;66.74
35085;SHT85;21267;51.032;6.998;2023-04-30T20:21:25;14.37;66.62
35085;SHT85;21267;51.032;6.998;2023-04-30T20:23:53;14.26;66.64
35085;SHT85;21267;51.032;6.998;2023-04-30T20:26:20;14.16;66.87
35085;SHT85;21267;51.032;6.998;2023-04-30T20:28:47;14.17;67.00
35085;SHT85;21267;51.032;6.998;2023-04-30T20:31:14;14.17;67.13
35085;SHT85;21267;51.032;6.998;2023-04-30T20:33:41;14.06;67.27
35085;SHT85;21267;51.032;6.998;2023-04-30T20:36:08;13.98;67.13
35085;SHT85;21267;51.032;6.998;2023-04-30T20:38:35;14.08;67.11
35085;SHT85;21267;51.032;6.998;2023-04-30T20:41:02;14.12;67.03
35085;SHT85;21267;51.032;6.998;2023-04-30T20:43:29;14.02;66.91
35085;SHT85;21267;51.032;6.998;2023-04-30T20:45:56;13.99;66.99
35085;SHT85;21267;51.032;6.998;2023-04-30T20:48:26;13.92;66.96
35085;SHT85;21267;51.032;6.998;2023-04-30T20:50:53;13.86;67.41
35085;SHT85;21267;51.032;6.998;2023-04-30T20:53:19;13.96;66.90
35085;SHT85;21267;51.032;6.998;2023-04-30T20:55:46;13.89;67.05
35085;SHT85;21267;51.032;6.998;2023-04-30T20:58:13;13.88;67.20
35085;SHT85;21267;51.032;6.998;2023-04-30T21:00:40;13.88;67.16
35085;SHT85;21267;51.032;6.998;2023-04-30T21:03:07;13.85;67.25
35085;SHT85;21267;51.032;6.998;2023-04-30T21:05:35;13.91;67.13
35085;SHT85;21267;51.032;6.998;2023-04-30T21:08:02;13.78;67.19
35085;SHT85;21267;51.032;6.998;2023-04-30T21:10:29;13.84;67.03
35085;SHT85;21267;51.032;6.998;2023-04-30T21:13:03;13.88;66.98
35085;SHT85;21267;51.032;6.998;2023-04-30T21:15:34;13.75;67.15
35085;SHT85;21267;51.032;6.998;2023-04-30T21:18:02;13.68;67.32
35085;SHT85;21267;51.032;6.998;2023-04-30T21:20:29;13.64;67.52
35085;SHT85;21267;51.032;6.998;2023-04-30T21:22:57;13.65;67.64
35085;SHT85;21267;51.032;6.998;2023-04-30T21:25:24;13.65;67.42
35085;SHT85;21267;51.032;6.998;2023-04-30T21:27:51;13.62;67.41
35085;SHT85;21267;51.032;6.998;2023-04-30T21:30:18;13.58;67.54
35085;SHT85;21267;51.032;6.998;2023-04-30T21:32:50;13.59;67.37
35085;SHT85;21267;51.032;6.998;2023-04-30T21:35:24;13.67;67.28
35085;SHT85;21267;51.032;6.998;2023-04-30T21:37:53;13.54;67.78
35085;SHT85;21267;51.032;6.998;2023-04-30T21:40:20;13.57;67.63
35085;SHT85;21267;51.032;6.998;2023-04-30T21:42:47;13.55;67.52
35085;SHT85;21267;51.032;6.998;2023-04-30T21:45:14;13.53;67.59
35085;SHT85;21267;51.032;6.998;2023-04-30T21:47:41;13.53;67.59
35085;SHT85;21267;51.032;6.998;2023-04-30T21:50:10;13.51;67.53
35085;SHT85;21267;51.032;6.998;2023-04-30T21:52:39;13.50;67.80
35085;SHT85;21267;51.032;6.998;2023-04-30T21:55:06;13.57;67.40
35085;SHT85;21267;51.032;6.998;2023-04-30T21:57:34;13.48;67.58
35085;SHT85;21267;51.032;6.998;2023-04-30T22:00:01;13.54;67.43
35085;SHT85;21267;51.032;6.998;2023-04-30T22:02:30;13.46;67.72
35085;SHT85;21267;51.032;6.998;2023-04-30T22:04:58;13.55;67.63
35085;SHT85;21267;51.032;6.998;2023-04-30T22:07:25;13.41;67.67
35085;SHT85;21267;51.032;6.998;2023-04-30T22:09:52;13.37;67.83
35085;SHT85;21267;51.032;6.998;2023-04-30T22:12:20;13.31;67.84
35085;SHT85;21267;51.032;6.998;2023-04-30T22:14:53;13.30;68.13
35085;SHT85;21267;51.032;6.998;2023-04-30T22:17:20;13.28;68.19
35085;SHT85;21267;51.032;6.998;2023-04-30T22:19:48;13.31;67.91
35085;SHT85;21267;51.032;6.998;2023-04-30T22:22:15;13.30;67.93
35085;SHT85;21267;51.032;6.998;2023-04-30T22:24:42;13.33;67.78
35085;SHT85;21267;51.032;6.998;2023-04-30T22:27:09;13.36;67.74
35085;SHT85;21267;51.032;6.998;2023-04-30T22:29:36;13.38;67.72
35085;SHT85;21267;51.032;6.998;2023-04-30T22:32:03;13.37;67.60
35085;SHT85;21267;51.032;6.998;2023-04-30T22:34:36;13.31;67.58
35085;SHT85;21267;51.032;6.998;2023-04-30T22:37:03;13.37;67.54
35085;SHT85;21267;51.032;6.998;2023-04-30T22:39:32;13.31;67.66
35085;SHT85;21267;51.032;6.998;2023-04-30T22:41:59;13.33;67.57
35085;SHT85;21267;51.032;6.998;2023-04-30T22:44:26;13.22;67.99
35085;SHT85;21267;51.032;6.998;2023-04-30T22:46:55;13.23;68.08
35085;SHT85;21267;51.032;6.998;2023-04-30T22:49:24;13.24;67.97
35085;SHT85;21267;51.032;6.998;2023-04-30T22:51:57;13.34;67.94
35085;SHT85;21267;51.032;6.998;2023-04-30T22:54:24;13.27;68.15
35085;SHT85;21267;51.032;6.998;2023-04-30T22:56:51;13.31;68.05
35085;SHT85;21267;51.032;6.998;2023-04-30T22:59:18;13.17;69.23
35085;SHT85;21267;51.032;6.998;2023-04-30T23:01:45;13.07;69.30
35085;SHT85;21267;51.032;6.998;2023-04-30T23:04:12;13.13;69.00
35085;SHT85;21267;51.032;6.998;2023-04-30T23:06:39;13.16;69.40
35085;SHT85;21267;51.032;6.998;2023-04-30T23:09:07;13.15;68.91
35085;SHT85;21267;51.032;6.998;2023-04-30T23:11:34;13.07;68.83
35085;SHT85;21267;51.032;6.998;2023-04-30T23:14:01;13.09;68.71
35085;SHT85;21267;51.032;6.998;2023-04-30T23:16:28;13.07;68.89
35085;SHT85;21267;51.032;6.998;2023-04-30T23:18:55;13.03;69.26
35085;SHT85;21267;51.032;6.998;2023-04-30T23:21:22;13.12;68.71
35085;SHT85;21267;51.032;6.998;2023-04-30T23:23:49;13.19;68.43
35085;SHT85;21267;51.032;6.998;2023-04-30T23:26:16;13.19;68.28
35085;SHT85;21267;51.032;6.998;2023-04-30T23:28:43;13.13;68.07
35085;SHT85;21267;51.032;6.998;2023-04-30T23:31:10;13.19;68.18
35085;SHT85;21267;51.032;6.998;2023-04-30T23:33:36;13.19;68.58
35085;SHT85;21267;51.032;6.998;2023-04-30T23:36:04;13.23;67.98
35085;SHT85;21267;51.032;6.998;2023-04-30T23:38:31;13.24;68.24
35085;SHT85;21267;51.032;6.998;2023-04-30T23:40:58;13.20;68.17
35085;SHT85;21267;51.032;6.998;2023-04-30T23:43:25;13.19;68.13
35085;SHT85;21267;51.032;6.998;2023-04-30T23:45:51;13.22;68.36
35085;SHT85;21267;51.032;6.998;2023-04-30T23:48:18;13.20;68.17
35085;SHT85;21267;51.032;6.998;2023-04-30T23:50:45;13.30;68.29
35085;SHT85;21267;51.032;6.998;2023-04-30T23:53:12;13.20;69.12
35085;SHT85;21267;51.032;6.998;2023-04-30T23:55:42;13.27;69.09
